Pompano Beach, FL

01:37 AM EDT die 23o September, anno 2017 (GMT -0400)
Pompano Beach | | Change Station

Elev 16 ft 26.25 °N, 80.11 °W | Updated 33 minutes ago

Partialiter Nubila
Partialiter Nubila
80 °F
Feels Like 85 °F
N
8
Ventus Variabilis Ventus from Eurus

Hodie
High -- | Low -- °F
--% Chance of Precip.
Yesterday
High -- | Low -- °F
Precip. -- in
Pressio 29.84 in
Visibilitas 9.0 milia passuum
Clouds Few 1700 ft
Few 2900 ft
Index Caloris 85 °F
Frigus in quo Ros apparet 75 °F
Umor 85%
Rainfall 0.00 in
Snow Depth Not available.
7:09 AM 7:15 PM
Waxing Crescent, 10% visible
SPECI KPMP 230504Z AUTO 08007KT 9SM FEW017 FEW029 27/24 A2984 RMK AO2 T02670239
Pressio 29.84 in
Visibilitas 9.0 milia passuum
Clouds Few 1700 ft
Few 2900 ft
Index Caloris 85 °F
Frigus in quo Ros apparet 75 °F
Umor 85%
Rainfall 0.00 in
Snow Depth Not available.
7:09 AM 7:15 PM
Waxing Crescent, 10% visible
SPECI KPMP 230504Z AUTO 08007KT 9SM FEW017 FEW029 27/24 A2984 RMK AO2 T02670239

Get Severe Weather Alerts

Thanks for signing up!

Be on the lookout for a verification email in your inbox.

You'll start receiving the daily forecast at 6 AM.

×

10-Day Weather Forecast

Almanac

Astronomy

Sep. 23, 2017 Rise Set
Actual Time
Civil Twilight
Nautical Twilight
Astronomical Twilight
Moon
Length Of Visible Light
Length of Day
Tomorrow will be .
, % of the Moon is Illuminated

Today's Extremes

State Highs State Lows

Community

WunderPhotos

Category 6

Welcome to Category 6. This is the collective home for Weather Underground's featured writeups by Dr. Jeff Masters (right), Bob Henson (left), Chris Burt, and other regular contributors.

Nearby

Air Quality

  Air Quality AQ Index Pollutant
Not available.

Snow Depth

Station Depth Elevation

Earthquake Activity

City Distance Mag. Time & Date
Minimum magnitude displayed is 2.5.

Coastal Water Temperatures

Locus Calor

Stations

Nearby Weather Stations

Station Location Temp Frigus Venti Frigus in quo Ros apparet Umor Ventus Precip. Elev Renovata Type
                   

Watches & Warnings

There are currently no watches in effect.